Time;durP1;ratioP1;P1;durP2;ratioP2;P2;SDS_P1;SDS_P2;PMS_P1;PMS_P2;Temp;Humidity;BMP_temperature;BMP_pressure;BME280_temperature;BME280_humidity;BME280_pressure;Samples;Min_cycle;Max_cycle;Signal;HPM_P1;HPM_P2
2023/05/18 00:02:14;;;;;;;4.40;1.90;;;;;;;;;;107550;283;38930;-35
2023/05/18 00:04:49;;;;;;;4.40;1.80;;;;;;;;;;107496;283;39687;-35
2023/05/18 00:07:25;;;;;;;4.60;2.00;;;;;;;;;;107529;283;42903;-35
2023/05/18 00:09:59;;;;;;;4.40;1.90;;;;;;;;;;107548;286;43338;-35
2023/05/18 00:12:36;;;;;;;5.40;2.10;;;;;;;;;;107522;283;38555;-35
2023/05/18 00:15:15;;;;;;;4.70;2.00;;;;;;;;;;107491;286;46550;-35
2023/05/18 00:17:49;;;;;;;4.10;1.80;;;;;;;;;;107528;279;42964;-35
2023/05/18 00:20:25;;;;;;;4.80;1.90;;;;;;;;;;107445;286;175590;-35
2023/05/18 00:23:02;;;;;;;4.00;1.90;;;;;;;;;;107517;283;38785;-35
2023/05/18 00:25:37;;;;;;;4.60;2.10;;;;;;;;;;107507;286;46512;-35
2023/05/18 00:28:13;;;;;;;4.20;1.80;;;;;;;;;;107542;283;42870;-35
2023/05/18 00:30:49;;;;;;;4.30;1.90;;;;;;;;;;107528;283;43424;-35
2023/05/18 00:33:25;;;;;;;4.20;1.80;;;;;;;;;;107523;283;38545;-35
2023/05/18 00:35:59;;;;;;;4.50;1.80;;;;;;;;;;107505;284;47616;-35
2023/05/18 00:38:32;;;;;;;4.10;1.80;;;;;;;;;;107452;285;43030;-35
2023/05/18 00:41:07;;;;;;;3.60;1.70;;;;;;;;;;107521;286;42136;-35
2023/05/18 00:43:43;;;;;;;3.90;1.80;;;;;;;;;;107527;287;38832;-35
2023/05/18 00:46:18;;;;;;;4.20;1.80;;;;;;;;;;107512;286;46724;-36
2023/05/18 00:48:54;;;;;;;4.00;1.60;;;;;;;;;;107543;286;42857;-37
2023/05/18 00:51:28;;;;;;;4.30;2.00;;;;;;;;;;107544;283;41890;-37
2023/05/18 00:54:04;;;;;;;5.20;2.10;;;;;;;;;;107565;286;38772;-37
2023/05/18 00:56:41;;;;;;;4.40;1.90;;;;;;;;;;107645;286;45218;-37
2023/05/18 00:59:15;;;;;;;4.50;2.30;;;;;;;;;;107586;286;44050;-37
2023/05/18 01:01:52;;;;;;;4.40;2.10;;;;;;;;;;107564;283;42025;-37
2023/05/18 01:04:30;;;;;;;4.70;2.10;;;;;;;;;;107526;286;40865;-37
2023/05/18 01:07:05;;;;;;;5.30;2.20;;;;;;;;;;106912;286;895826;-37
2023/05/18 01:09:41;;;;;;;4.00;1.70;;;;;;;;;;107526;286;43035;-37
2023/05/18 01:12:25;;;;;;;5.00;2.10;;;;;;;;;;107515;283;42149;-37
2023/05/18 01:15:07;;;;;;;4.90;1.90;;;;;;;;;;107111;286;539922;-37
2023/05/18 01:18:03;;;;;;;4.70;2.00;;;;;;;;;;107443;285;39652;-37
2023/05/18 01:20:47;;;;;;;4.90;2.10;;;;;;;;;;107566;283;42865;-37
2023/05/18 01:24:07;;;;;;;5.10;2.10;;;;;;;;;;107549;286;42181;-37
2023/05/18 01:26:58;;;;;;;4.20;2.00;;;;;;;;;;107405;283;40184;-37
2023/05/18 01:29:34;;;;;;;4.30;2.00;;;;;;;;;;107581;283;39723;-37
2023/05/18 01:32:19;;;;;;;4.80;2.20;;;;;;;;;;107557;285;42942;-36
2023/05/18 01:34:56;;;;;;;5.10;2.00;;;;;;;;;;107544;283;43043;-37
2023/05/18 01:37:29;;;;;;;4.50;1.90;;;;;;;;;;107660;286;44406;-37
2023/05/18 01:40:05;;;;;;;5.10;2.00;;;;;;;;;;107557;283;39482;-37
2023/05/18 01:42:52;;;;;;;4.30;1.90;;;;;;;;;;107564;286;42861;-37
2023/05/18 01:45:35;;;;;;;4.80;2.20;;;;;;;;;;107471;286;41927;-37
2023/05/18 01:48:14;;;;;;;4.40;2.10;;;;;;;;;;107515;286;46157;-37
2023/05/18 01:50:58;;;;;;;4.40;1.80;;;;;;;;;;107568;286;39532;-37
2023/05/18 01:53:42;;;;;;;4.20;2.00;;;;;;;;;;107554;286;42871;-37
2023/05/18 01:56:20;;;;;;;4.20;1.90;;;;;;;;;;107499;283;42462;-37
2023/05/18 01:58:55;;;;;;;4.50;1.80;;;;;;;;;;107545;283;38832;-38
2023/05/18 02:01:31;;;;;;;4.90;2.60;;;;;;;;;;107539;286;39829;-37
2023/05/18 02:04:14;;;;;;;4.50;1.80;;;;;;;;;;107537;286;43984;-38
2023/05/18 02:06:53;;;;;;;4.40;1.80;;;;;;;;;;107509;283;43230;-37
2023/05/18 02:09:28;;;;;;;4.00;1.70;;;;;;;;;;107547;286;40889;-37
2023/05/18 02:12:01;;;;;;;4.70;2.10;;;;;;;;;;107546;283;39913;-37
2023/05/18 02:14:37;;;;;;;4.40;1.90;;;;;;;;;;107539;286;42660;-37
2023/05/18 02:17:14;;;;;;;3.90;1.70;;;;;;;;;;107512;283;42270;-37
2023/05/18 02:19:52;;;;;;;4.00;1.80;;;;;;;;;;107540;286;39873;-37
2023/05/18 02:22:26;;;;;;;4.20;1.60;;;;;;;;;;107538;286;40020;-37
2023/05/18 02:24:59;;;;;;;4.30;1.70;;;;;;;;;;107551;286;42859;-37
2023/05/18 02:27:34;;;;;;;4.30;1.80;;;;;;;;;;107368;283;196459;-37
2023/05/18 02:30:11;;;;;;;5.00;1.90;;;;;;;;;;107541;283;38859;-37
2023/05/18 02:32:50;;;;;;;3.80;1.70;;;;;;;;;;107521;283;39736;-37
2023/05/18 02:35:26;;;;;;;3.90;1.70;;;;;;;;;;107528;286;43069;-37
2023/05/18 02:37:59;;;;;;;4.60;1.80;;;;;;;;;;107409;288;43780;-37
2023/05/18 02:40:33;;;;;;;4.30;1.80;;;;;;;;;;107572;285;38809;-37
2023/05/18 02:43:08;;;;;;;3.90;1.80;;;;;;;;;;107532;283;39807;-37
2023/05/18 02:45:45;;;;;;;4.60;2.00;;;;;;;;;;107520;283;42941;-37
2023/05/18 02:48:21;;;;;;;4.70;1.70;;;;;;;;;;107505;286;42612;-37
2023/05/18 02:50:56;;;;;;;4.20;1.70;;;;;;;;;;107534;283;38888;-37
2023/05/18 02:53:32;;;;;;;4.10;1.70;;;;;;;;;;107436;288;40760;-37
2023/05/18 02:56:06;;;;;;;4.10;1.70;;;;;;;;;;107529;283;42928;-37
2023/05/18 02:58:47;;;;;;;3.90;1.60;;;;;;;;;;107463;286;42118;-37
2023/05/18 03:01:25;;;;;;;4.40;1.70;;;;;;;;;;107523;286;38836;-37
2023/05/18 03:03:59;;;;;;;4.20;1.60;;;;;;;;;;107560;286;40140;-37
2023/05/18 03:06:34;;;;;;;4.20;1.60;;;;;;;;;;107513;287;43043;-37
2023/05/18 03:09:09;;;;;;;3.80;1.70;;;;;;;;;;107369;286;175698;-37
2023/05/18 03:11:44;;;;;;;3.80;1.60;;;;;;;;;;107537;283;38816;-37
2023/05/18 03:14:18;;;;;;;4.90;1.70;;;;;;;;;;107528;286;39727;-37
2023/05/18 03:16:53;;;;;;;3.70;1.30;;;;;;;;;;107545;283;42826;-37
2023/05/18 03:19:27;;;;;;;3.50;1.50;;;;;;;;;;107484;283;42256;-37
2023/05/18 03:22:02;;;;;;;4.10;1.60;;;;;;;;;;107522;283;38638;-37
2023/05/18 03:24:39;;;;;;;3.90;1.50;;;;;;;;;;107547;283;39687;-37
2023/05/18 03:27:15;;;;;;;3.60;1.40;;;;;;;;;;107524;283;44988;-37
2023/05/18 03:29:49;;;;;;;4.60;1.50;;;;;;;;;;107484;283;42302;-37
2023/05/18 03:32:23;;;;;;;3.90;1.40;;;;;;;;;;107437;283;175691;-37
2023/05/18 03:35:00;;;;;;;4.20;1.50;;;;;;;;;;107538;286;40798;-37
2023/05/18 03:37:37;;;;;;;4.10;1.60;;;;;;;;;;107533;286;44131;-37
2023/05/18 03:40:17;;;;;;;3.90;1.50;;;;;;;;;;107551;283;48796;-36
2023/05/18 03:42:52;;;;;;;3.20;1.40;;;;;;;;;;107530;283;38989;-37
2023/05/18 03:45:28;;;;;;;3.90;1.50;;;;;;;;;;107549;283;39704;-37
2023/05/18 03:48:04;;;;;;;4.10;1.60;;;;;;;;;;107528;283;42679;-34
2023/05/18 03:50:37;;;;;;;3.60;1.40;;;;;;;;;;107559;286;49441;-34
2023/05/18 03:53:17;;;;;;;3.60;1.40;;;;;;;;;;107554;279;41065;-34
2023/05/18 03:55:52;;;;;;;4.30;1.50;;;;;;;;;;107528;283;40757;-34
2023/05/18 03:58:28;;;;;;;3.50;1.20;;;;;;;;;;107480;283;42915;-34
2023/05/18 04:01:03;;;;;;;4.30;1.50;;;;;;;;;;107571;286;42224;-33
2023/05/18 04:03:39;;;;;;;4.00;1.60;;;;;;;;;;107564;286;38866;-34
2023/05/18 04:06:21;;;;;;;3.50;1.50;;;;;;;;;;107537;286;39629;-34
2023/05/18 04:08:56;;;;;;;3.60;1.40;;;;;;;;;;107512;286;43041;-34
2023/05/18 04:11:32;;;;;;;4.30;1.50;;;;;;;;;;107545;283;42230;-33
2023/05/18 04:14:07;;;;;;;4.40;1.60;;;;;;;;;;107531;286;39644;-34
2023/05/18 04:16:41;;;;;;;4.70;1.70;;;;;;;;;;107526;286;40879;-34
2023/05/18 04:19:16;;;;;;;4.20;1.50;;;;;;;;;;107459;283;43907;-34
2023/05/18 04:21:49;;;;;;;4.00;1.50;;;;;;;;;;107525;286;42424;-34
2023/05/18 04:24:25;;;;;;;4.20;1.80;;;;;;;;;;107531;286;38770;-34
2023/05/18 04:27:00;;;;;;;4.70;1.50;;;;;;;;;;107547;286;40905;-33
2023/05/18 04:29:37;;;;;;;4.90;1.60;;;;;;;;;;107419;286;175653;-34
2023/05/18 04:32:17;;;;;;;5.10;1.60;;;;;;;;;;107540;286;43465;-34
2023/05/18 04:34:50;;;;;;;4.30;1.50;;;;;;;;;;107550;283;38766;-34
2023/05/18 04:37:23;;;;;;;3.50;1.50;;;;;;;;;;107537;283;39734;-34
2023/05/18 04:40:00;;;;;;;4.50;1.70;;;;;;;;;;107488;286;45106;-34
2023/05/18 04:42:37;;;;;;;4.00;1.60;;;;;;;;;;107514;283;42185;-34
2023/05/18 04:45:14;;;;;;;5.30;1.70;;;;;;;;;;107538;285;38941;-34
2023/05/18 04:47:52;;;;;;;4.90;1.50;;;;;;;;;;107549;286;40790;-34
2023/05/18 04:50:27;;;;;;;4.00;1.60;;;;;;;;;;107487;279;43020;-34
2023/05/18 04:53:02;;;;;;;4.80;1.70;;;;;;;;;;107561;286;42267;-34
2023/05/18 04:55:37;;;;;;;4.90;1.70;;;;;;;;;;107427;287;39231;-34
2023/05/18 04:58:13;;;;;;;4.70;1.80;;;;;;;;;;107559;286;39887;-34
2023/05/18 05:00:48;;;;;;;5.00;1.60;;;;;;;;;;107480;286;42883;-34
2023/05/18 05:03:23;;;;;;;4.70;1.60;;;;;;;;;;107520;286;42183;-34
2023/05/18 05:05:56;;;;;;;5.90;2.60;;;;;;;;;;107551;283;38790;-35
2023/05/18 05:08:30;;;;;;;6.80;3.40;;;;;;;;;;107521;286;39755;-35
2023/05/18 05:11:03;;;;;;;6.60;3.10;;;;;;;;;;107471;286;44075;-35
2023/05/18 05:13:36;;;;;;;7.40;2.40;;;;;;;;;;107544;286;43279;-35
2023/05/18 05:16:11;;;;;;;5.70;2.50;;;;;;;;;;107523;283;38576;-35
2023/05/18 05:18:46;;;;;;;5.90;2.80;;;;;;;;;;107534;286;39829;-33
2023/05/18 05:21:19;;;;;;;5.40;2.50;;;;;;;;;;107489;283;42736;-33
2023/05/18 05:23:53;;;;;;;5.00;2.40;;;;;;;;;;107497;286;42407;-33
2023/05/18 05:26:26;;;;;;;6.00;2.70;;;;;;;;;;107512;283;38911;-33
2023/05/18 05:28:59;;;;;;;4.60;2.10;;;;;;;;;;107524;283;39773;-33
2023/05/18 05:31:33;;;;;;;5.20;2.20;;;;;;;;;;107488;286;42915;-33
2023/05/18 05:34:07;;;;;;;6.50;2.20;;;;;;;;;;107513;283;42307;-33
2023/05/18 05:36:40;;;;;;;5.40;2.30;;;;;;;;;;107553;288;38889;-32
2023/05/18 05:39:14;;;;;;;4.70;2.10;;;;;;;;;;107545;286;39759;-33
2023/05/18 05:41:47;;;;;;;6.50;2.10;;;;;;;;;;107471;286;42898;-33
2023/05/18 05:44:21;;;;;;;5.30;2.10;;;;;;;;;;107507;283;42298;-33
2023/05/18 05:46:55;;;;;;;4.90;2.20;;;;;;;;;;107527;283;39079;-33
2023/05/18 05:49:30;;;;;;;6.30;2.20;;;;;;;;;;107523;286;40031;-33
2023/05/18 05:52:03;;;;;;;4.90;2.10;;;;;;;;;;107484;286;42832;-33
2023/05/18 05:54:36;;;;;;;5.60;2.50;;;;;;;;;;107506;283;42277;-33
2023/05/18 05:57:10;;;;;;;4.90;2.10;;;;;;;;;;107522;283;40096;-33
2023/05/18 05:59:43;;;;;;;5.00;1.90;;;;;;;;;;107558;286;39736;-33
2023/05/18 06:02:23;;;;;;;5.40;2.00;;;;;;;;;;107474;283;42903;-33
2023/05/18 06:04:56;;;;;;;5.50;2.20;;;;;;;;;;107504;283;41920;-33
2023/05/18 06:07:31;;;;;;;4.80;2.10;;;;;;;;;;107528;282;40115;-32
2023/05/18 06:10:08;;;;;;;5.50;2.00;;;;;;;;;;107537;286;41054;-33
2023/05/18 06:12:41;;;;;;;5.10;1.80;;;;;;;;;;106854;286;893832;-33
2023/05/18 06:15:14;;;;;;;4.80;1.90;;;;;;;;;;107518;286;42342;-33
2023/05/18 06:17:50;;;;;;;4.80;2.00;;;;;;;;;;107532;283;39967;-33
2023/05/18 06:20:26;;;;;;;4.60;1.90;;;;;;;;;;107548;283;40877;-33
2023/05/18 06:23:00;;;;;;;4.60;1.80;;;;;;;;;;107522;282;42870;-33
2023/05/18 06:25:34;;;;;;;4.90;1.80;;;;;;;;;;106895;286;894344;-33
2023/05/18 06:28:09;;;;;;;5.00;1.90;;;;;;;;;;107517;283;38873;-33
2023/05/18 06:30:43;;;;;;;4.80;2.00;;;;;;;;;;107448;286;175641;-33
2023/05/18 06:33:20;;;;;;;4.00;1.60;;;;;;;;;;107519;286;43033;-33
2023/05/18 06:35:54;;;;;;;4.10;1.80;;;;;;;;;;107538;284;43177;-40
2023/05/18 06:38:28;;;;;;;7.40;1.80;;;;;;;;;;107410;285;175642;-37
2023/05/18 06:41:02;;;;;;;4.50;1.80;;;;;;;;;;107519;285;39749;-38
2023/05/18 06:43:37;;;;;;;5.00;1.90;;;;;;;;;;107551;277;44046;-38
2023/05/18 06:46:20;;;;;;;4.40;1.60;;;;;;;;;;107547;285;42266;-38
2023/05/18 06:48:54;;;;;;;4.60;1.60;;;;;;;;;;107649;283;38949;-39
2023/05/18 06:51:28;;;;;;;4.10;1.80;;;;;;;;;;107616;286;39505;-38
2023/05/18 06:54:02;;;;;;;3.70;1.60;;;;;;;;;;107564;282;48879;-38
2023/05/18 06:56:36;;;;;;;4.10;1.60;;;;;;;;;;107613;285;43267;-38
2023/05/18 06:59:11;;;;;;;4.70;1.70;;;;;;;;;;107614;286;38824;-40
2023/05/18 07:01:45;;;;;;;4.00;1.60;;;;;;;;;;106940;285;892699;-38
2023/05/18 07:04:20;;;;;;;4.80;1.90;;;;;;;;;;107545;283;48642;-39
2023/05/18 07:06:54;;;;;;;5.50;1.90;;;;;;;;;;107620;285;41979;-38
2023/05/18 07:09:32;;;;;;;4.50;1.80;;;;;;;;;;107588;282;38909;-38
2023/05/18 07:12:08;;;;;;;4.80;1.60;;;;;;;;;;107554;282;39769;-39
2023/05/18 07:14:42;;;;;;;4.60;1.60;;;;;;;;;;107601;282;44024;-39
2023/05/18 07:17:19;;;;;;;6.50;2.00;;;;;;;;;;107603;281;43291;-38
2023/05/18 07:19:56;;;;;;;4.00;1.50;;;;;;;;;;107599;283;38795;-37
2023/05/18 07:22:30;;;;;;;4.10;1.70;;;;;;;;;;107508;287;39691;-38
2023/05/18 07:25:06;;;;;;;4.30;1.70;;;;;;;;;;107646;285;44233;-39
2023/05/18 07:27:41;;;;;;;3.90;1.60;;;;;;;;;;107610;283;41928;-38
2023/05/18 07:30:24;;;;;;;5.10;1.70;;;;;;;;;;107633;286;38819;-38
2023/05/18 07:32:58;;;;;;;4.00;1.70;;;;;;;;;;107557;282;41020;-38
2023/05/18 07:35:34;;;;;;;4.30;1.70;;;;;;;;;;107583;285;44242;-40
2023/05/18 07:38:09;;;;;;;3.80;1.50;;;;;;;;;;107610;282;42119;-37
2023/05/18 07:40:43;;;;;;;4.60;1.90;;;;;;;;;;107602;286;39976;-38
2023/05/18 07:43:17;;;;;;;4.00;1.70;;;;;;;;;;107505;285;39709;-38
2023/05/18 07:45:50;;;;;;;4.50;1.70;;;;;;;;;;107599;286;44124;-38
2023/05/18 07:48:25;;;;;;;4.40;1.50;;;;;;;;;;107595;277;42147;-38
2023/05/18 07:50:59;;;;;;;4.30;1.60;;;;;;;;;;107548;285;40003;-38
2023/05/18 07:53:34;;;;;;;4.30;1.50;;;;;;;;;;107578;286;41789;-38
2023/05/18 07:56:11;;;;;;;5.60;1.60;;;;;;;;;;107588;282;43030;-40
2023/05/18 07:58:45;;;;;;;4.40;1.70;;;;;;;;;;106922;285;894636;-38
2023/05/18 08:01:20;;;;;;;5.10;1.50;;;;;;;;;;107606;286;39008;-37
2023/05/18 08:03:54;;;;;;;4.10;1.70;;;;;;;;;;107574;286;39851;-37
2023/05/18 08:06:30;;;;;;;4.60;1.70;;;;;;;;;;107529;287;42841;-36
2023/05/18 08:09:04;;;;;;;6.30;2.50;;;;;;;;;;107610;285;42580;-36
2023/05/18 08:11:40;;;;;;;8.30;4.00;;;;;;;;;;107564;283;38851;-36
2023/05/18 08:14:14;;;;;;;7.20;3.30;;;;;;;;;;107297;286;41863;-36
2023/05/18 08:16:49;;;;;;;7.00;3.00;;;;;;;;;;107571;285;43095;-37
2023/05/18 08:19:26;;;;;;;5.70;2.70;;;;;;;;;;107576;282;42154;-36
2023/05/18 08:21:59;;;;;;;5.80;2.40;;;;;;;;;;107469;285;38806;-37
2023/05/18 08:24:33;;;;;;;5.00;1.80;;;;;;;;;;107544;285;39715;-38
2023/05/18 08:27:10;;;;;;;5.80;2.20;;;;;;;;;;107552;286;43180;-38
2023/05/18 08:29:46;;;;;;;7.20;2.00;;;;;;;;;;107607;282;41883;-37
2023/05/18 08:32:23;;;;;;;4.80;1.70;;;;;;;;;;107621;285;38665;-37
2023/05/18 08:34:59;;;;;;;4.80;2.10;;;;;;;;;;107555;287;39855;-38
2023/05/18 08:37:36;;;;;;;4.20;1.80;;;;;;;;;;107611;286;42874;-38
2023/05/18 08:40:12;;;;;;;4.40;1.60;;;;;;;;;;107544;283;43300;-37
2023/05/18 08:43:03;;;;;;;3.80;1.60;;;;;;;;;;107426;278;175661;-37
2023/05/18 08:45:44;;;;;;;4.20;1.80;;;;;;;;;;107551;283;39880;-37
2023/05/18 08:48:21;;;;;;;4.40;1.60;;;;;;;;;;107585;286;44034;-37
2023/05/18 08:50:56;;;;;;;4.90;1.80;;;;;;;;;;107562;283;43291;-37
2023/05/18 08:53:33;;;;;;;3.70;1.50;;;;;;;;;;107582;286;38783;-38
2023/05/18 08:56:11;;;;;;;4.20;1.60;;;;;;;;;;107561;285;39834;-38
2023/05/18 08:58:50;;;;;;;4.70;1.60;;;;;;;;;;107636;283;43543;-36
2023/05/18 09:01:27;;;;;;;4.90;2.00;;;;;;;;;;107577;286;42165;-36
2023/05/18 09:04:06;;;;;;;4.40;1.50;;;;;;;;;;107743;277;38950;-37
2023/05/18 09:06:40;;;;;;;6.10;1.70;;;;;;;;;;107514;286;40880;-37
2023/05/18 09:09:15;;;;;;;3.20;1.30;;;;;;;;;;107501;286;42899;-36
2023/05/18 09:11:50;;;;;;;4.90;1.80;;;;;;;;;;107563;282;42178;-36
2023/05/18 09:14:24;;;;;;;7.10;2.60;;;;;;;;;;107561;286;38612;-37
2023/05/18 09:16:58;;;;;;;5.50;2.50;;;;;;;;;;107318;283;512973;-39
2023/05/18 09:19:32;;;;;;;5.00;2.00;;;;;;;;;;107583;277;42968;-37
2023/05/18 09:22:05;;;;;;;5.00;2.00;;;;;;;;;;107547;286;42140;-36
2023/05/18 09:24:40;;;;;;;5.90;2.30;;;;;;;;;;107552;283;38806;-37
2023/05/18 09:27:15;;;;;;;5.40;2.10;;;;;;;;;;107648;284;47436;-36
2023/05/18 09:29:58;;;;;;;5.70;2.00;;;;;;;;;;107555;285;43952;-36
2023/05/18 09:32:36;;;;;;;5.50;2.10;;;;;;;;;;107493;283;42166;-39
2023/05/18 09:35:11;;;;;;;4.60;2.00;;;;;;;;;;107533;283;39029;-38
2023/05/18 09:37:46;;;;;;;4.80;1.90;;;;;;;;;;107582;286;45943;-38
2023/05/18 09:40:20;;;;;;;5.50;2.10;;;;;;;;;;107553;277;43950;-37
2023/05/18 09:42:54;;;;;;;4.50;1.90;;;;;;;;;;107586;285;42179;-37
2023/05/18 09:45:28;;;;;;;5.00;1.80;;;;;;;;;;107340;283;39846;-36
2023/05/18 09:48:05;;;;;;;5.10;1.80;;;;;;;;;;107558;286;47139;-38
2023/05/18 09:50:39;;;;;;;4.30;1.60;;;;;;;;;;107570;286;42878;-37
2023/05/18 09:53:16;;;;;;;5.10;1.70;;;;;;;;;;107562;284;42234;-37
2023/05/18 09:55:53;;;;;;;5.60;1.90;;;;;;;;;;107592;283;39180;-36
2023/05/18 09:58:27;;;;;;;5.20;1.90;;;;;;;;;;107522;283;48514;-36
2023/05/18 10:01:04;;;;;;;4.30;1.50;;;;;;;;;;107576;284;44053;-36
2023/05/18 10:03:40;;;;;;;4.00;1.50;;;;;;;;;;107604;283;42124;-36
2023/05/18 10:06:18;;;;;;;3.90;1.50;;;;;;;;;;107540;285;38879;-36
2023/05/18 10:08:52;;;;;;;4.10;1.50;;;;;;;;;;107559;283;48122;-36
2023/05/18 10:11:28;;;;;;;4.10;1.60;;;;;;;;;;107580;284;44131;-36
2023/05/18 10:14:02;;;;;;;4.10;1.70;;;;;;;;;;107620;277;42272;-36
2023/05/18 10:16:37;;;;;;;3.40;1.40;;;;;;;;;;107580;286;39920;-36
2023/05/18 10:19:15;;;;;;;3.80;1.50;;;;;;;;;;107603;283;48334;-36
2023/05/18 10:21:50;;;;;;;3.60;1.30;;;;;;;;;;107621;277;42872;-36
2023/05/18 10:24:26;;;;;;;3.80;1.50;;;;;;;;;;107612;277;42148;-37
2023/05/18 10:27:08;;;;;;;4.30;1.50;;;;;;;;;;107529;282;39207;-38
2023/05/18 10:29:42;;;;;;;3.90;1.50;;;;;;;;;;107557;285;48168;-38
2023/05/18 10:32:19;;;;;;;4.00;1.40;;;;;;;;;;107502;282;43882;-38
2023/05/18 10:34:55;;;;;;;4.90;1.50;;;;;;;;;;107523;286;43328;-37
2023/05/18 10:37:31;;;;;;;3.80;1.30;;;;;;;;;;107539;277;38829;-37
2023/05/18 10:40:08;;;;;;;5.50;1.50;;;;;;;;;;107549;285;39760;-37
2023/05/18 10:42:43;;;;;;;4.00;1.30;;;;;;;;;;107577;284;42671;-37
2023/05/18 10:45:18;;;;;;;3.70;1.40;;;;;;;;;;107524;283;41902;-37
2023/05/18 10:47:54;;;;;;;4.10;1.30;;;;;;;;;;107494;284;38856;-37
2023/05/18 10:50:29;;;;;;;4.50;1.40;;;;;;;;;;107573;283;40996;-37
2023/05/18 10:53:06;;;;;;;3.90;1.30;;;;;;;;;;107604;286;44089;-36
2023/05/18 10:55:39;;;;;;;3.20;1.10;;;;;;;;;;107618;283;42361;-36
2023/05/18 10:58:17;;;;;;;3.10;1.00;;;;;;;;;;107338;283;38568;-37
2023/05/18 11:00:54;;;;;;;3.30;1.20;;;;;;;;;;107609;286;39755;-37
2023/05/18 11:03:28;;;;;;;2.90;1.10;;;;;;;;;;107507;284;42866;-37
2023/05/18 11:06:11;;;;;;;3.10;1.10;;;;;;;;;;107589;286;41915;-36
2023/05/18 11:08:48;;;;;;;;;;;;;;;;;;107594;283;38807;-36
2023/05/18 11:11:28;;;;;;;2.80;1.00;;;;;;;;;;107617;286;39819;-37
2023/05/18 11:14:05;;;;;;;3.40;1.00;;;;;;;;;;107573;283;42899;-36
2023/05/18 11:16:43;;;;;;;3.00;1.10;;;;;;;;;;107556;286;42179;-35
2023/05/18 11:19:16;;;;;;;3.00;1.00;;;;;;;;;;107558;285;38788;-37
2023/05/18 11:21:56;;;;;;;2.70;1.00;;;;;;;;;;107600;286;39780;-36
2023/05/18 11:24:35;;;;;;;3.70;1.20;;;;;;;;;;107576;283;44253;-36
2023/05/18 11:27:19;;;;;;;3.20;1.10;;;;;;;;;;107581;283;42150;-36
2023/05/18 11:29:52;;;;;;;3.30;0.90;;;;;;;;;;107587;283;38803;-34
2023/05/18 11:32:52;;;;;;;2.40;1.00;;;;;;;;;;107587;283;39857;-34
2023/05/18 11:35:27;;;;;;;2.70;1.00;;;;;;;;;;107529;283;42918;-35
2023/05/18 11:38:11;;;;;;;2.80;1.00;;;;;;;;;;107570;286;42147;-35
2023/05/18 11:40:51;;;;;;;3.40;1.00;;;;;;;;;;107568;283;38900;-35
2023/05/18 11:43:26;;;;;;;3.20;1.20;;;;;;;;;;107565;283;40877;-35
2023/05/18 11:46:01;;;;;;;3.20;1.00;;;;;;;;;;107581;286;42906;-35
2023/05/18 11:48:46;;;;;;;2.50;0.80;;;;;;;;;;107575;286;42942;-35
2023/05/18 11:51:24;;;;;;;2.90;1.10;;;;;;;;;;107589;278;44592;-35
2023/05/18 11:53:59;;;;;;;3.10;1.10;;;;;;;;;;107562;283;39819;-35
2023/05/18 11:56:36;;;;;;;3.00;1.00;;;;;;;;;;107611;283;42940;-35
2023/05/18 11:59:16;;;;;;;3.30;0.80;;;;;;;;;;107560;283;43208;-35
2023/05/18 12:01:51;;;;;;;2.60;0.90;;;;;;;;;;106941;286;893692;-35
2023/05/18 12:04:25;;;;;;;3.00;1.00;;;;;;;;;;107595;283;39557;-35
2023/05/18 12:07:00;;;;;;;3.10;1.20;;;;;;;;;;107558;283;42868;-35
2023/05/18 12:09:35;;;;;;;2.40;0.90;;;;;;;;;;107556;283;42897;-35
2023/05/18 12:12:10;;;;;;;2.00;0.80;;;;;;;;;;107462;287;45269;-35
2023/05/18 12:14:46;;;;;;;2.40;0.80;;;;;;;;;;107645;286;39676;-35
2023/05/18 12:17:20;;;;;;;2.70;0.90;;;;;;;;;;107663;283;43206;-35
2023/05/18 12:19:54;;;;;;;2.90;1.00;;;;;;;;;;107615;285;44339;-35
2023/05/18 12:22:31;;;;;;;2.90;0.90;;;;;;;;;;107526;283;175605;-35
2023/05/18 12:25:05;;;;;;;2.70;0.90;;;;;;;;;;107616;283;39820;-35
2023/05/18 12:27:42;;;;;;;2.90;1.10;;;;;;;;;;107613;283;43164;-35
2023/05/18 12:30:21;;;;;;;2.40;0.80;;;;;;;;;;107642;283;42205;-35
2023/05/18 12:32:57;;;;;;;3.70;0.90;;;;;;;;;;107621;286;38816;-35
2023/05/18 12:35:32;;;;;;;2.90;0.90;;;;;;;;;;107485;286;41932;-35
2023/05/18 12:38:06;;;;;;;2.40;1.00;;;;;;;;;;107536;284;43011;-35
2023/05/18 12:40:47;;;;;;;2.80;0.90;;;;;;;;;;107490;283;42148;-35
2023/05/18 12:43:23;;;;;;;3.10;0.90;;;;;;;;;;107520;285;38843;-35
2023/05/18 12:45:58;;;;;;;2.40;0.90;;;;;;;;;;107351;284;39725;-35
2023/05/18 12:48:46;;;;;;;2.90;0.90;;;;;;;;;;107380;284;43100;-35
2023/05/18 12:51:23;;;;;;;2.10;0.70;;;;;;;;;;107334;284;42682;-35
2023/05/18 12:53:56;;;;;;;2.40;0.90;;;;;;;;;;107262;284;175299;-35
2023/05/18 12:56:50;;;;;;;2.60;0.80;;;;;;;;;;107382;285;40840;-35
2023/05/18 12:59:24;;;;;;;2.50;0.90;;;;;;;;;;107352;287;43159;-35
2023/05/18 13:01:58;;;;;;;2.40;0.80;;;;;;;;;;107342;284;41971;-35
2023/05/18 13:04:37;;;;;;;2.60;0.80;;;;;;;;;;107362;283;38616;-35
2023/05/18 13:07:13;;;;;;;1.80;0.70;;;;;;;;;;107329;287;39754;-35
2023/05/18 13:09:49;;;;;;;2.20;0.90;;;;;;;;;;107360;287;42868;-35
2023/05/18 13:12:40;;;;;;;2.20;0.80;;;;;;;;;;107336;284;42245;-35
2023/05/18 13:15:19;;;;;;;2.10;0.70;;;;;;;;;;107364;287;38882;-35
2023/05/18 13:17:58;;;;;;;3.00;0.90;;;;;;;;;;107338;284;40080;-35
2023/05/18 13:20:39;;;;;;;2.60;0.80;;;;;;;;;;107358;287;42917;-35
2023/05/18 13:23:15;;;;;;;2.80;0.90;;;;;;;;;;107313;286;43315;-35
2023/05/18 13:25:50;;;;;;;3.50;0.80;;;;;;;;;;107391;287;40075;-35
2023/05/18 13:28:24;;;;;;;3.60;0.80;;;;;;;;;;107369;287;40914;-35
2023/05/18 13:30:59;;;;;;;7.00;1.10;;;;;;;;;;107373;291;42956;-36
2023/05/18 13:33:33;;;;;;;2.70;0.80;;;;;;;;;;107341;284;42374;-36
2023/05/18 13:36:07;;;;;;;2.40;0.70;;;;;;;;;;107427;283;40019;-37
2023/05/18 13:38:42;;;;;;;3.60;1.00;;;;;;;;;;107502;286;40925;-37
2023/05/18 13:41:16;;;;;;;2.80;0.80;;;;;;;;;;107560;286;44086;-36
2023/05/18 13:43:50;;;;;;;2.80;0.80;;;;;;;;;;107565;282;43320;-36
2023/05/18 13:46:24;;;;;;;3.20;1.00;;;;;;;;;;107530;284;38896;-36
2023/05/18 13:48:59;;;;;;;3.00;0.90;;;;;;;;;;107617;286;40922;-36
2023/05/18 13:51:34;;;;;;;3.00;0.90;;;;;;;;;;106939;286;913018;-36
2023/05/18 13:54:08;;;;;;;2.60;0.90;;;;;;;;;;107552;283;49028;-35
2023/05/18 13:56:41;;;;;;;1.80;0.80;;;;;;;;;;107630;283;38828;-35
2023/05/18 13:59:18;;;;;;;2.40;0.80;;;;;;;;;;107615;283;39492;-35
2023/05/18 14:01:52;;;;;;;2.80;0.80;;;;;;;;;;107592;283;42883;-35
2023/05/18 14:04:33;;;;;;;3.30;0.90;;;;;;;;;;107581;283;48992;-35
2023/05/18 14:07:08;;;;;;;3.20;1.10;;;;;;;;;;107630;286;38780;-35
2023/05/18 14:09:42;;;;;;;2.80;1.00;;;;;;;;;;107633;286;39713;-35
2023/05/18 14:12:16;;;;;;;2.60;0.90;;;;;;;;;;107629;283;42877;-35
2023/05/18 14:14:49;;;;;;;3.30;1.30;;;;;;;;;;107522;283;175575;-36
2023/05/18 14:17:28;;;;;;;4.50;1.60;;;;;;;;;;107647;283;38797;-35
2023/05/18 14:20:06;;;;;;;4.80;1.30;;;;;;;;;;107654;283;39739;-35
2023/05/18 14:22:40;;;;;;;4.60;1.70;;;;;;;;;;107606;282;42880;-35
2023/05/18 14:25:13;;;;;;;3.60;1.60;;;;;;;;;;107589;285;42052;-35
2023/05/18 14:27:47;;;;;;;4.40;1.50;;;;;;;;;;107533;285;38777;-35
2023/05/18 14:30:24;;;;;;;7.10;2.10;;;;;;;;;;107564;285;39851;-35
2023/05/18 14:33:00;;;;;;;4.70;1.70;;;;;;;;;;107491;286;42876;-34
2023/05/18 14:35:34;;;;;;;5.10;1.60;;;;;;;;;;107554;283;42329;-34
2023/05/18 14:38:07;;;;;;;4.30;1.60;;;;;;;;;;107538;283;39854;-35
2023/05/18 14:40:40;;;;;;;4.10;1.40;;;;;;;;;;107225;285;192961;-35
2023/05/18 14:43:13;;;;;;;3.50;1.20;;;;;;;;;;107450;286;43071;-35
2023/05/18 14:45:47;;;;;;;4.40;1.50;;;;;;;;;;107527;283;42414;-34
2023/05/18 14:48:39;;;;;;;4.70;1.70;;;;;;;;;;107530;283;38953;-34
2023/05/18 14:51:14;;;;;;;4.40;1.50;;;;;;;;;;107513;284;39736;-35
2023/05/18 14:53:48;;;;;;;5.20;1.60;;;;;;;;;;107468;284;44045;-34
2023/05/18 14:56:21;;;;;;;4.00;1.30;;;;;;;;;;107575;283;42232;-35
2023/05/18 14:58:55;;;;;;;4.00;1.30;;;;;;;;;;107566;283;39406;-35
2023/05/18 15:01:30;;;;;;;3.80;1.20;;;;;;;;;;107565;286;39708;-33
2023/05/18 15:04:03;;;;;;;4.10;1.40;;;;;;;;;;107556;283;42892;-34
2023/05/18 15:06:37;;;;;;;4.50;1.20;;;;;;;;;;107555;286;42431;-33
2023/05/18 15:09:10;;;;;;;6.20;2.20;;;;;;;;;;107567;283;38904;-34
2023/05/18 15:11:44;;;;;;;5.30;1.60;;;;;;;;;;107549;283;39886;-35
2023/05/18 15:14:18;;;;;;;6.20;2.60;;;;;;;;;;107434;284;43924;-35
2023/05/18 15:16:51;;;;;;;5.20;2.00;;;;;;;;;;107544;277;42187;-36
2023/05/18 15:19:24;;;;;;;9.60;4.60;;;;;;;;;;107533;283;38844;-35
2023/05/18 15:21:57;;;;;;;16.00;7.60;;;;;;;;;;107553;283;39790;-35
2023/05/18 15:24:31;;;;;;;24.70;13.10;;;;;;;;;;107510;283;42892;-35
2023/05/18 15:27:04;;;;;;;44.40;21.30;;;;;;;;;;107510;283;43469;-34
2023/05/18 15:29:38;;;;;;;33.10;15.70;;;;;;;;;;107393;284;38843;-34
2023/05/18 15:32:11;;;;;;;36.20;17.40;;;;;;;;;;107531;283;39860;-35
2023/05/18 15:34:44;;;;;;;27.30;13.40;;;;;;;;;;107556;286;42926;-35
2023/05/18 15:37:17;;;;;;;31.60;14.60;;;;;;;;;;107580;283;41974;-35